sensor_id;sensor_type;location;lat;lon;timestamp;P1;durP1;ratioP1;P2;durP2;ratioP2
69256;SDS011;56376;53.356;-1.748;2022-10-17T00:00:41;3.00;;;2.35;;
69256;SDS011;56376;53.356;-1.748;2022-10-17T00:03:07;3.00;;;2.63;;
69256;SDS011;56376;53.356;-1.748;2022-10-17T00:05:33;2.83;;;2.40;;
69256;SDS011;56376;53.356;-1.748;2022-10-17T00:07:58;3.97;;;2.72;;
69256;SDS011;56376;53.356;-1.748;2022-10-17T00:10:24;3.50;;;2.42;;
69256;SDS011;56376;53.356;-1.748;2022-10-17T00:12:50;6.03;;;3.08;;
69256;SDS011;56376;53.356;-1.748;2022-10-17T00:15:17;3.08;;;2.55;;
69256;SDS011;56376;53.356;-1.748;2022-10-17T00:17:43;3.25;;;2.55;;
69256;SDS011;56376;53.356;-1.748;2022-10-17T00:20:09;3.00;;;2.70;;
69256;SDS011;56376;53.356;-1.748;2022-10-17T00:22:35;3.78;;;2.38;;
69256;SDS011;56376;53.356;-1.748;2022-10-17T00:25:01;3.03;;;2.40;;
69256;SDS011;56376;53.356;-1.748;2022-10-17T00:27:26;3.17;;;2.45;;
69256;SDS011;56376;53.356;-1.748;2022-10-17T00:29:52;2.75;;;2.30;;
69256;SDS011;56376;53.356;-1.748;2022-10-17T00:32:17;2.63;;;2.42;;
69256;SDS011;56376;53.356;-1.748;2022-10-17T00:34:44;2.67;;;2.42;;
69256;SDS011;56376;53.356;-1.748;2022-10-17T00:37:10;3.38;;;2.00;;
69256;SDS011;56376;53.356;-1.748;2022-10-17T00:39:35;2.28;;;2.03;;
69256;SDS011;56376;53.356;-1.748;2022-10-17T00:42:01;3.17;;;2.08;;
69256;SDS011;56376;53.356;-1.748;2022-10-17T00:46:55;4.50;;;2.58;;
69256;SDS011;56376;53.356;-1.748;2022-10-17T00:49:26;3.95;;;2.30;;
69256;SDS011;56376;53.356;-1.748;2022-10-17T00:51:55;4.03;;;2.03;;
69256;SDS011;56376;53.356;-1.748;2022-10-17T00:54:24;3.60;;;2.00;;
69256;SDS011;56376;53.356;-1.748;2022-10-17T00:56:55;2.88;;;2.00;;
69256;SDS011;56376;53.356;-1.748;2022-10-17T00:59:21;3.05;;;2.13;;
69256;SDS011;56376;53.356;-1.748;2022-10-17T01:02:02;2.45;;;1.85;;
69256;SDS011;56376;53.356;-1.748;2022-10-17T01:04:30;5.07;;;2.30;;
69256;SDS011;56376;53.356;-1.748;2022-10-17T01:06:56;3.00;;;2.55;;
69256;SDS011;56376;53.356;-1.748;2022-10-17T01:09:22;4.75;;;2.05;;
69256;SDS011;56376;53.356;-1.748;2022-10-17T01:11:49;2.40;;;1.77;;
69256;SDS011;56376;53.356;-1.748;2022-10-17T01:14:27;2.35;;;1.55;;
69256;SDS011;56376;53.356;-1.748;2022-10-17T01:22:12;2.03;;;1.70;;
69256;SDS011;56376;53.356;-1.748;2022-10-17T01:24:48;2.00;;;1.65;;
69256;SDS011;56376;53.356;-1.748;2022-10-17T01:27:41;3.03;;;1.80;;
69256;SDS011;56376;53.356;-1.748;2022-10-17T01:41:16;4.10;;;2.35;;
69256;SDS011;56376;53.356;-1.748;2022-10-17T01:43:48;4.55;;;2.20;;
69256;SDS011;56376;53.356;-1.748;2022-10-17T01:46:24;3.35;;;2.00;;
69256;SDS011;56376;53.356;-1.748;2022-10-17T01:56:57;1.98;;;1.50;;
69256;SDS011;56376;53.356;-1.748;2022-10-17T01:59:33;2.67;;;1.63;;
69256;SDS011;56376;53.356;-1.748;2022-10-17T02:02:03;6.30;;;1.90;;
69256;SDS011;56376;53.356;-1.748;2022-10-17T02:04:30;4.63;;;1.80;;
69256;SDS011;56376;53.356;-1.748;2022-10-17T02:06:55;2.50;;;1.50;;
69256;SDS011;56376;53.356;-1.748;2022-10-17T02:22:59;3.72;;;1.25;;
69256;SDS011;56376;53.356;-1.748;2022-10-17T02:29:08;2.35;;;1.20;;
69256;SDS011;56376;53.356;-1.748;2022-10-17T02:31:19;1.95;;;1.10;;
69256;SDS011;56376;53.356;-1.748;2022-10-17T02:33:55;2.13;;;1.10;;
69256;SDS011;56376;53.356;-1.748;2022-10-17T02:36:27;4.03;;;1.23;;
69256;SDS011;56376;53.356;-1.748;2022-10-17T02:38:56;3.03;;;1.17;;
69256;SDS011;56376;53.356;-1.748;2022-10-17T02:41:23;2.58;;;1.20;;
69256;SDS011;56376;53.356;-1.748;2022-10-17T02:43:49;1.33;;;0.90;;
69256;SDS011;56376;53.356;-1.748;2022-10-17T02:46:18;2.78;;;1.20;;
69256;SDS011;56376;53.356;-1.748;2022-10-17T02:54:14;1.17;;;0.82;;
69256;SDS011;56376;53.356;-1.748;2022-10-17T02:56:49;1.92;;;1.20;;
69256;SDS011;56376;53.356;-1.748;2022-10-17T02:59:19;1.85;;;0.93;;
69256;SDS011;56376;53.356;-1.748;2022-10-17T03:01:47;2.00;;;0.95;;
69256;SDS011;56376;53.356;-1.748;2022-10-17T03:04:15;1.05;;;0.90;;
69256;SDS011;56376;53.356;-1.748;2022-10-17T03:06:42;2.78;;;1.00;;
69256;SDS011;56376;53.356;-1.748;2022-10-17T03:09:09;1.38;;;1.08;;
69256;SDS011;56376;53.356;-1.748;2022-10-17T03:11:34;1.08;;;1.00;;
69256;SDS011;56376;53.356;-1.748;2022-10-17T03:14:00;1.85;;;1.23;;
69256;SDS011;56376;53.356;-1.748;2022-10-17T03:16:25;1.40;;;1.08;;
69256;SDS011;56376;53.356;-1.748;2022-10-17T03:18:51;2.45;;;1.13;;
69256;SDS011;56376;53.356;-1.748;2022-10-17T03:21:16;2.50;;;1.20;;
69256;SDS011;56376;53.356;-1.748;2022-10-17T03:23:42;1.90;;;1.13;;
69256;SDS011;56376;53.356;-1.748;2022-10-17T03:26:07;1.88;;;1.30;;
69256;SDS011;56376;53.356;-1.748;2022-10-17T03:28:34;1.92;;;1.10;;
69256;SDS011;56376;53.356;-1.748;2022-10-17T03:31:05;2.20;;;1.15;;
69256;SDS011;56376;53.356;-1.748;2022-10-17T03:33:31;2.60;;;1.52;;
69256;SDS011;56376;53.356;-1.748;2022-10-17T03:35:56;1.25;;;1.05;;
69256;SDS011;56376;53.356;-1.748;2022-10-17T03:38:22;4.35;;;1.50;;
69256;SDS011;56376;53.356;-1.748;2022-10-17T03:40:54;2.00;;;1.27;;
69256;SDS011;56376;53.356;-1.748;2022-10-17T03:43:20;4.25;;;1.60;;
69256;SDS011;56376;53.356;-1.748;2022-10-17T03:45:45;3.55;;;1.60;;
69256;SDS011;56376;53.356;-1.748;2022-10-17T03:48:10;1.90;;;1.10;;
69256;SDS011;56376;53.356;-1.748;2022-10-17T03:50:36;3.10;;;1.35;;
69256;SDS011;56376;53.356;-1.748;2022-10-17T03:53:01;4.35;;;1.50;;
69256;SDS011;56376;53.356;-1.748;2022-10-17T03:55:26;3.38;;;1.42;;
69256;SDS011;56376;53.356;-1.748;2022-10-17T03:57:52;3.28;;;1.40;;
69256;SDS011;56376;53.356;-1.748;2022-10-17T04:00:17;3.20;;;1.70;;
69256;SDS011;56376;53.356;-1.748;2022-10-17T04:02:43;2.88;;;1.50;;
69256;SDS011;56376;53.356;-1.748;2022-10-17T04:05:09;1.23;;;1.10;;
69256;SDS011;56376;53.356;-1.748;2022-10-17T04:07:34;2.78;;;1.30;;
69256;SDS011;56376;53.356;-1.748;2022-10-17T04:10:01;3.38;;;1.55;;
69256;SDS011;56376;53.356;-1.748;2022-10-17T04:12:28;3.67;;;1.55;;
69256;SDS011;56376;53.356;-1.748;2022-10-17T04:14:53;3.80;;;1.80;;
69256;SDS011;56376;53.356;-1.748;2022-10-17T04:17:19;2.67;;;1.60;;
69256;SDS011;56376;53.356;-1.748;2022-10-17T04:19:44;3.78;;;1.50;;
69256;SDS011;56376;53.356;-1.748;2022-10-17T04:22:10;4.15;;;1.88;;
69256;SDS011;56376;53.356;-1.748;2022-10-17T04:24:35;4.70;;;1.98;;
69256;SDS011;56376;53.356;-1.748;2022-10-17T04:27:00;4.55;;;1.83;;
69256;SDS011;56376;53.356;-1.748;2022-10-17T04:29:26;3.88;;;1.40;;
69256;SDS011;56376;53.356;-1.748;2022-10-17T04:31:51;2.03;;;1.40;;
69256;SDS011;56376;53.356;-1.748;2022-10-17T04:34:17;4.22;;;1.95;;
69256;SDS011;56376;53.356;-1.748;2022-10-17T04:36:43;4.55;;;1.40;;
69256;SDS011;56376;53.356;-1.748;2022-10-17T04:39:08;2.70;;;1.42;;
69256;SDS011;56376;53.356;-1.748;2022-10-17T04:41:34;5.10;;;1.50;;
69256;SDS011;56376;53.356;-1.748;2022-10-17T04:43:59;1.73;;;1.13;;
69256;SDS011;56376;53.356;-1.748;2022-10-17T04:46:24;3.90;;;1.83;;
69256;SDS011;56376;53.356;-1.748;2022-10-17T04:48:50;4.47;;;1.20;;
69256;SDS011;56376;53.356;-1.748;2022-10-17T04:51:16;3.08;;;1.20;;
69256;SDS011;56376;53.356;-1.748;2022-10-17T04:53:43;4.28;;;1.45;;
69256;SDS011;56376;53.356;-1.748;2022-10-17T04:56:10;2.72;;;1.45;;
69256;SDS011;56376;53.356;-1.748;2022-10-17T04:58:40;3.78;;;1.27;;
69256;SDS011;56376;53.356;-1.748;2022-10-17T05:01:07;3.38;;;1.42;;
69256;SDS011;56376;53.356;-1.748;2022-10-17T05:03:35;2.83;;;1.30;;
69256;SDS011;56376;53.356;-1.748;2022-10-17T05:06:12;2.90;;;1.40;;
69256;SDS011;56376;53.356;-1.748;2022-10-17T05:08:38;3.20;;;1.10;;
69256;SDS011;56376;53.356;-1.748;2022-10-17T05:11:05;3.22;;;1.30;;
69256;SDS011;56376;53.356;-1.748;2022-10-17T05:13:39;4.32;;;1.55;;
69256;SDS011;56376;53.356;-1.748;2022-10-17T05:16:04;3.47;;;1.30;;
69256;SDS011;56376;53.356;-1.748;2022-10-17T05:18:30;2.58;;;1.23;;
69256;SDS011;56376;53.356;-1.748;2022-10-17T05:20:55;3.35;;;1.30;;
69256;SDS011;56376;53.356;-1.748;2022-10-17T05:23:20;2.03;;;1.13;;
69256;SDS011;56376;53.356;-1.748;2022-10-17T05:25:46;4.03;;;1.40;;
69256;SDS011;56376;53.356;-1.748;2022-10-17T05:28:11;4.32;;;1.75;;
69256;SDS011;56376;53.356;-1.748;2022-10-17T05:30:37;4.13;;;1.23;;
69256;SDS011;56376;53.356;-1.748;2022-10-17T05:33:02;2.72;;;1.23;;
69256;SDS011;56376;53.356;-1.748;2022-10-17T05:35:27;3.20;;;1.17;;
69256;SDS011;56376;53.356;-1.748;2022-10-17T05:37:53;3.15;;;1.40;;
69256;SDS011;56376;53.356;-1.748;2022-10-17T05:40:18;4.05;;;1.20;;
69256;SDS011;56376;53.356;-1.748;2022-10-17T05:42:44;3.75;;;1.20;;
69256;SDS011;56376;53.356;-1.748;2022-10-17T05:45:11;4.50;;;1.85;;
69256;SDS011;56376;53.356;-1.748;2022-10-17T05:47:37;2.45;;;1.42;;
69256;SDS011;56376;53.356;-1.748;2022-10-17T05:50:02;3.33;;;1.42;;
69256;SDS011;56376;53.356;-1.748;2022-10-17T05:52:28;3.92;;;1.20;;
69256;SDS011;56376;53.356;-1.748;2022-10-17T05:54:53;5.85;;;1.48;;
69256;SDS011;56376;53.356;-1.748;2022-10-17T05:57:19;3.28;;;1.30;;
69256;SDS011;56376;53.356;-1.748;2022-10-17T05:59:44;3.55;;;1.90;;
69256;SDS011;56376;53.356;-1.748;2022-10-17T06:02:11;2.10;;;1.27;;
69256;SDS011;56376;53.356;-1.748;2022-10-17T06:04:37;3.13;;;1.30;;
69256;SDS011;56376;53.356;-1.748;2022-10-17T06:07:02;4.53;;;1.85;;
69256;SDS011;56376;53.356;-1.748;2022-10-17T06:09:29;3.08;;;1.38;;
69256;SDS011;56376;53.356;-1.748;2022-10-17T06:11:54;5.13;;;1.98;;
69256;SDS011;56376;53.356;-1.748;2022-10-17T06:14:19;4.63;;;1.38;;
69256;SDS011;56376;53.356;-1.748;2022-10-17T06:16:45;4.05;;;1.55;;
69256;SDS011;56376;53.356;-1.748;2022-10-17T06:19:11;3.97;;;1.42;;
69256;SDS011;56376;53.356;-1.748;2022-10-17T06:21:36;4.18;;;1.20;;
69256;SDS011;56376;53.356;-1.748;2022-10-17T06:24:02;3.65;;;1.40;;
69256;SDS011;56376;53.356;-1.748;2022-10-17T06:26:28;3.22;;;1.30;;
69256;SDS011;56376;53.356;-1.748;2022-10-17T06:28:54;3.70;;;1.38;;
69256;SDS011;56376;53.356;-1.748;2022-10-17T06:31:19;4.68;;;1.50;;
69256;SDS011;56376;53.356;-1.748;2022-10-17T06:33:45;6.28;;;1.88;;
69256;SDS011;56376;53.356;-1.748;2022-10-17T06:36:11;3.65;;;1.20;;
69256;SDS011;56376;53.356;-1.748;2022-10-17T06:38:38;5.10;;;1.40;;
69256;SDS011;56376;53.356;-1.748;2022-10-17T06:41:05;3.78;;;1.70;;
69256;SDS011;56376;53.356;-1.748;2022-10-17T06:43:36;5.05;;;1.98;;
69256;SDS011;56376;53.356;-1.748;2022-10-17T06:46:02;2.40;;;1.00;;
69256;SDS011;56376;53.356;-1.748;2022-10-17T06:48:28;2.50;;;1.17;;
69256;SDS011;56376;53.356;-1.748;2022-10-17T06:50:57;3.50;;;1.25;;
69256;SDS011;56376;53.356;-1.748;2022-10-17T06:53:27;4.05;;;1.40;;
69256;SDS011;56376;53.356;-1.748;2022-10-17T06:55:53;2.88;;;1.50;;
69256;SDS011;56376;53.356;-1.748;2022-10-17T06:58:19;3.22;;;1.58;;
69256;SDS011;56376;53.356;-1.748;2022-10-17T07:00:45;3.50;;;1.38;;
69256;SDS011;56376;53.356;-1.748;2022-10-17T07:03:10;5.10;;;1.77;;
69256;SDS011;56376;53.356;-1.748;2022-10-17T07:05:36;4.55;;;1.92;;
69256;SDS011;56376;53.356;-1.748;2022-10-17T07:08:03;4.85;;;2.13;;
69256;SDS011;56376;53.356;-1.748;2022-10-17T07:10:29;5.55;;;1.60;;
69256;SDS011;56376;53.356;-1.748;2022-10-17T07:12:54;5.70;;;1.70;;
69256;SDS011;56376;53.356;-1.748;2022-10-17T07:15:19;4.25;;;1.45;;
69256;SDS011;56376;53.356;-1.748;2022-10-17T07:17:48;8.57;;;2.30;;
69256;SDS011;56376;53.356;-1.748;2022-10-17T07:20:14;5.75;;;1.98;;
69256;SDS011;56376;53.356;-1.748;2022-10-17T07:22:40;4.82;;;2.25;;
69256;SDS011;56376;53.356;-1.748;2022-10-17T07:25:05;6.25;;;2.13;;
69256;SDS011;56376;53.356;-1.748;2022-10-17T07:27:31;4.80;;;1.95;;
69256;SDS011;56376;53.356;-1.748;2022-10-17T07:29:57;6.13;;;1.88;;
69256;SDS011;56376;53.356;-1.748;2022-10-17T07:32:22;3.92;;;1.67;;
69256;SDS011;56376;53.356;-1.748;2022-10-17T07:34:48;4.32;;;1.63;;
69256;SDS011;56376;53.356;-1.748;2022-10-17T07:37:13;6.32;;;1.92;;
69256;SDS011;56376;53.356;-1.748;2022-10-17T07:39:39;5.93;;;1.80;;
69256;SDS011;56376;53.356;-1.748;2022-10-17T07:42:04;4.50;;;2.08;;
69256;SDS011;56376;53.356;-1.748;2022-10-17T07:44:31;6.32;;;2.05;;
69256;SDS011;56376;53.356;-1.748;2022-10-17T07:46:57;4.25;;;1.83;;
69256;SDS011;56376;53.356;-1.748;2022-10-17T07:49:22;8.13;;;2.30;;
69256;SDS011;56376;53.356;-1.748;2022-10-17T07:51:47;6.65;;;1.98;;
69256;SDS011;56376;53.356;-1.748;2022-10-17T07:54:13;5.03;;;1.95;;
69256;SDS011;56376;53.356;-1.748;2022-10-17T07:56:39;5.38;;;1.80;;
69256;SDS011;56376;53.356;-1.748;2022-10-17T07:59:04;3.17;;;1.48;;
69256;SDS011;56376;53.356;-1.748;2022-10-17T08:01:30;4.15;;;1.50;;
69256;SDS011;56376;53.356;-1.748;2022-10-17T08:03:55;7.07;;;2.50;;
69256;SDS011;56376;53.356;-1.748;2022-10-17T08:06:20;4.22;;;1.58;;
69256;SDS011;56376;53.356;-1.748;2022-10-17T08:08:46;5.05;;;1.60;;
69256;SDS011;56376;53.356;-1.748;2022-10-17T08:11:12;8.52;;;2.20;;
69256;SDS011;56376;53.356;-1.748;2022-10-17T08:13:38;5.20;;;2.42;;
69256;SDS011;56376;53.356;-1.748;2022-10-17T08:16:05;7.13;;;1.85;;
69256;SDS011;56376;53.356;-1.748;2022-10-17T08:18:33;7.20;;;2.00;;
69256;SDS011;56376;53.356;-1.748;2022-10-17T08:21:00;8.02;;;2.20;;
69256;SDS011;56376;53.356;-1.748;2022-10-17T08:23:26;8.50;;;2.20;;
69256;SDS011;56376;53.356;-1.748;2022-10-17T08:25:53;8.23;;;2.10;;
69256;SDS011;56376;53.356;-1.748;2022-10-17T08:28:18;10.68;;;2.20;;
69256;SDS011;56376;53.356;-1.748;2022-10-17T08:30:44;10.48;;;2.42;;
69256;SDS011;56376;53.356;-1.748;2022-10-17T08:33:09;6.65;;;2.15;;
69256;SDS011;56376;53.356;-1.748;2022-10-17T08:35:34;10.20;;;2.70;;
69256;SDS011;56376;53.356;-1.748;2022-10-17T08:38:00;6.90;;;2.85;;
69256;SDS011;56376;53.356;-1.748;2022-10-17T08:40:26;7.80;;;3.00;;
69256;SDS011;56376;53.356;-1.748;2022-10-17T08:45:55;8.68;;;2.42;;
69256;SDS011;56376;53.356;-1.748;2022-10-17T08:48:27;10.27;;;2.78;;
69256;SDS011;56376;53.356;-1.748;2022-10-17T08:51:06;9.23;;;2.67;;
69256;SDS011;56376;53.356;-1.748;2022-10-17T08:53:48;9.10;;;2.50;;
69256;SDS011;56376;53.356;-1.748;2022-10-17T08:56:23;9.25;;;2.88;;
69256;SDS011;56376;53.356;-1.748;2022-10-17T08:58:50;8.80;;;2.05;;
69256;SDS011;56376;53.356;-1.748;2022-10-17T09:01:36;6.35;;;2.40;;
69256;SDS011;56376;53.356;-1.748;2022-10-17T09:04:08;6.95;;;1.90;;
69256;SDS011;56376;53.356;-1.748;2022-10-17T09:06:51;10.43;;;2.50;;
69256;SDS011;56376;53.356;-1.748;2022-10-17T09:10:07;7.90;;;2.15;;
69256;SDS011;56376;53.356;-1.748;2022-10-17T09:12:46;8.35;;;3.40;;
69256;SDS011;56376;53.356;-1.748;2022-10-17T09:18:15;6.45;;;2.60;;
69256;SDS011;56376;53.356;-1.748;2022-10-17T09:20:46;8.30;;;2.20;;
69256;SDS011;56376;53.356;-1.748;2022-10-17T09:23:21;4.88;;;1.95;;
69256;SDS011;56376;53.356;-1.748;2022-10-17T09:25:51;6.78;;;2.03;;
69256;SDS011;56376;53.356;-1.748;2022-10-17T09:28:35;6.15;;;2.05;;
69256;SDS011;56376;53.356;-1.748;2022-10-17T09:33:46;6.65;;;2.05;;
69256;SDS011;56376;53.356;-1.748;2022-10-17T09:36:31;5.55;;;1.65;;
69256;SDS011;56376;53.356;-1.748;2022-10-17T09:39:00;5.47;;;1.63;;
69256;SDS011;56376;53.356;-1.748;2022-10-17T09:41:34;10.05;;;2.45;;
69256;SDS011;56376;53.356;-1.748;2022-10-17T09:44:14;5.90;;;2.25;;
69256;SDS011;56376;53.356;-1.748;2022-10-17T09:49:51;5.30;;;2.35;;
69256;SDS011;56376;53.356;-1.748;2022-10-17T09:52:27;8.05;;;2.45;;
69256;SDS011;56376;53.356;-1.748;2022-10-17T09:57:51;5.85;;;2.00;;
69256;SDS011;56376;53.356;-1.748;2022-10-17T10:00:29;4.32;;;1.80;;
69256;SDS011;56376;53.356;-1.748;2022-10-17T10:03:20;6.93;;;2.55;;
69256;SDS011;56376;53.356;-1.748;2022-10-17T10:08:26;6.63;;;2.13;;
69256;SDS011;56376;53.356;-1.748;2022-10-17T10:11:01;6.25;;;2.28;;
69256;SDS011;56376;53.356;-1.748;2022-10-17T10:13:30;7.95;;;2.20;;
69256;SDS011;56376;53.356;-1.748;2022-10-17T10:16:17;10.82;;;2.30;;
69256;SDS011;56376;53.356;-1.748;2022-10-17T10:18:45;9.50;;;2.60;;
69256;SDS011;56376;53.356;-1.748;2022-10-17T10:21:13;5.60;;;1.95;;
69256;SDS011;56376;53.356;-1.748;2022-10-17T10:29:01;4.68;;;1.75;;
69256;SDS011;56376;53.356;-1.748;2022-10-17T10:34:00;7.18;;;2.22;;
69256;SDS011;56376;53.356;-1.748;2022-10-17T10:36:44;5.35;;;2.17;;
69256;SDS011;56376;53.356;-1.748;2022-10-17T10:39:27;2.90;;;1.30;;
69256;SDS011;56376;53.356;-1.748;2022-10-17T10:42:00;6.78;;;1.88;;
69256;SDS011;56376;53.356;-1.748;2022-10-17T10:44:27;2.92;;;1.65;;
69256;SDS011;56376;53.356;-1.748;2022-10-17T10:47:05;3.72;;;1.70;;
69256;SDS011;56376;53.356;-1.748;2022-10-17T10:49:46;5.00;;;1.88;;
69256;SDS011;56376;53.356;-1.748;2022-10-17T10:52:18;4.68;;;1.80;;
69256;SDS011;56376;53.356;-1.748;2022-10-17T10:54:58;6.97;;;2.17;;
69256;SDS011;56376;53.356;-1.748;2022-10-17T10:57:38;3.47;;;1.52;;
69256;SDS011;56376;53.356;-1.748;2022-10-17T11:00:10;6.68;;;1.98;;
69256;SDS011;56376;53.356;-1.748;2022-10-17T11:05:32;3.20;;;1.35;;
69256;SDS011;56376;53.356;-1.748;2022-10-17T11:08:06;4.30;;;1.98;;
69256;SDS011;56376;53.356;-1.748;2022-10-17T11:10:42;4.38;;;1.65;;
69256;SDS011;56376;53.356;-1.748;2022-10-17T11:15:47;2.33;;;1.30;;
69256;SDS011;56376;53.356;-1.748;2022-10-17T11:18:34;4.07;;;1.42;;
69256;SDS011;56376;53.356;-1.748;2022-10-17T11:21:22;6.57;;;2.00;;
69256;SDS011;56376;53.356;-1.748;2022-10-17T11:28:51;5.00;;;2.00;;
69256;SDS011;56376;53.356;-1.748;2022-10-17T11:31:18;5.20;;;1.88;;
69256;SDS011;56376;53.356;-1.748;2022-10-17T11:34:01;5.90;;;2.13;;
69256;SDS011;56376;53.356;-1.748;2022-10-17T11:36:33;4.75;;;1.88;;
69256;SDS011;56376;53.356;-1.748;2022-10-17T11:44:16;6.07;;;1.63;;
69256;SDS011;56376;53.356;-1.748;2022-10-17T11:47:10;4.68;;;1.50;;
69256;SDS011;56376;53.356;-1.748;2022-10-17T11:50:04;4.03;;;1.52;;
69256;SDS011;56376;53.356;-1.748;2022-10-17T11:52:39;5.70;;;1.95;;
69256;SDS011;56376;53.356;-1.748;2022-10-17T11:55:13;4.63;;;2.00;;
69256;SDS011;56376;53.356;-1.748;2022-10-17T12:06:11;5.28;;;1.80;;
69256;SDS011;56376;53.356;-1.748;2022-10-17T12:08:54;4.00;;;2.05;;
69256;SDS011;56376;53.356;-1.748;2022-10-17T12:16:57;4.93;;;1.55;;
69256;SDS011;56376;53.356;-1.748;2022-10-17T12:19:24;4.28;;;1.40;;
69256;SDS011;56376;53.356;-1.748;2022-10-17T12:21:56;5.47;;;1.90;;
69256;SDS011;56376;53.356;-1.748;2022-10-17T12:30:05;4.00;;;1.58;;
69256;SDS011;56376;53.356;-1.748;2022-10-17T12:35:27;3.45;;;1.48;;
69256;SDS011;56376;53.356;-1.748;2022-10-17T12:37:59;4.60;;;1.58;;
69256;SDS011;56376;53.356;-1.748;2022-10-17T12:49:21;3.22;;;1.40;;
69256;SDS011;56376;53.356;-1.748;2022-10-17T12:51:25;5.30;;;1.85;;
69256;SDS011;56376;53.356;-1.748;2022-10-17T12:59:21;5.10;;;1.90;;
69256;SDS011;56376;53.356;-1.748;2022-10-17T13:01:54;3.35;;;1.65;;
69256;SDS011;56376;53.356;-1.748;2022-10-17T13:04:23;5.43;;;1.70;;
69256;SDS011;56376;53.356;-1.748;2022-10-17T13:06:51;3.22;;;1.63;;
69256;SDS011;56376;53.356;-1.748;2022-10-17T13:09:24;6.30;;;2.00;;
69256;SDS011;56376;53.356;-1.748;2022-10-17T13:11:52;4.65;;;1.67;;
69256;SDS011;56376;53.356;-1.748;2022-10-17T13:14:19;5.50;;;2.05;;
69256;SDS011;56376;53.356;-1.748;2022-10-17T13:19:22;4.10;;;2.22;;
69256;SDS011;56376;53.356;-1.748;2022-10-17T13:21:53;6.57;;;1.98;;
69256;SDS011;56376;53.356;-1.748;2022-10-17T13:24:31;4.55;;;1.70;;
69256;SDS011;56376;53.356;-1.748;2022-10-17T13:26:58;5.80;;;2.05;;
69256;SDS011;56376;53.356;-1.748;2022-10-17T13:29:25;3.95;;;1.73;;
69256;SDS011;56376;53.356;-1.748;2022-10-17T13:31:57;4.55;;;1.67;;
69256;SDS011;56376;53.356;-1.748;2022-10-17T13:34:25;6.10;;;1.50;;
69256;SDS011;56376;53.356;-1.748;2022-10-17T13:37:01;4.13;;;1.60;;
69256;SDS011;56376;53.356;-1.748;2022-10-17T13:39:31;6.50;;;1.80;;
69256;SDS011;56376;53.356;-1.748;2022-10-17T13:42:00;7.15;;;2.45;;
69256;SDS011;56376;53.356;-1.748;2022-10-17T13:44:27;5.57;;;2.28;;
69256;SDS011;56376;53.356;-1.748;2022-10-17T13:46:57;4.53;;;2.10;;
69256;SDS011;56376;53.356;-1.748;2022-10-17T13:49:41;5.55;;;1.88;;
69256;SDS011;56376;53.356;-1.748;2022-10-17T13:52:18;4.57;;;2.35;;
69256;SDS011;56376;53.356;-1.748;2022-10-17T13:54:47;5.95;;;2.42;;
69256;SDS011;56376;53.356;-1.748;2022-10-17T13:57:28;4.97;;;1.55;;
69256;SDS011;56376;53.356;-1.748;2022-10-17T14:00:37;6.75;;;2.22;;
69256;SDS011;56376;53.356;-1.748;2022-10-17T14:02:45;7.95;;;2.13;;
69256;SDS011;56376;53.356;-1.748;2022-10-17T14:05:13;5.55;;;2.03;;
69256;SDS011;56376;53.356;-1.748;2022-10-17T14:10:38;4.65;;;1.88;;
69256;SDS011;56376;53.356;-1.748;2022-10-17T14:13:05;7.10;;;1.80;;
69256;SDS011;56376;53.356;-1.748;2022-10-17T14:15:34;4.72;;;1.85;;
69256;SDS011;56376;53.356;-1.748;2022-10-17T14:18:07;5.30;;;1.58;;
69256;SDS011;56376;53.356;-1.748;2022-10-17T14:20:37;5.78;;;2.20;;
69256;SDS011;56376;53.356;-1.748;2022-10-17T14:23:25;5.40;;;1.50;;
69256;SDS011;56376;53.356;-1.748;2022-10-17T14:29:05;4.88;;;1.52;;
69256;SDS011;56376;53.356;-1.748;2022-10-17T14:31:42;3.22;;;1.35;;
69256;SDS011;56376;53.356;-1.748;2022-10-17T14:34:15;4.05;;;1.55;;
69256;SDS011;56376;53.356;-1.748;2022-10-17T14:36:45;6.07;;;2.35;;
69256;SDS011;56376;53.356;-1.748;2022-10-17T14:39:19;5.65;;;2.03;;
69256;SDS011;56376;53.356;-1.748;2022-10-17T14:41:47;3.88;;;1.25;;
69256;SDS011;56376;53.356;-1.748;2022-10-17T14:44:24;5.93;;;1.90;;
69256;SDS011;56376;53.356;-1.748;2022-10-17T14:46:55;4.97;;;1.42;;
69256;SDS011;56376;53.356;-1.748;2022-10-17T14:49:25;6.13;;;1.73;;
69256;SDS011;56376;53.356;-1.748;2022-10-17T14:57:13;5.50;;;1.50;;
69256;SDS011;56376;53.356;-1.748;2022-10-17T14:59:45;5.03;;;1.95;;
69256;SDS011;56376;53.356;-1.748;2022-10-17T15:02:11;6.03;;;1.92;;
69256;SDS011;56376;53.356;-1.748;2022-10-17T15:04:37;3.40;;;1.40;;
69256;SDS011;56376;53.356;-1.748;2022-10-17T15:07:03;3.05;;;1.25;;
69256;SDS011;56376;53.356;-1.748;2022-10-17T15:09:28;5.70;;;1.55;;
69256;SDS011;56376;53.356;-1.748;2022-10-17T15:11:54;5.90;;;1.88;;
69256;SDS011;56376;53.356;-1.748;2022-10-17T15:14:23;5.78;;;1.73;;
69256;SDS011;56376;53.356;-1.748;2022-10-17T15:16:49;6.20;;;1.90;;
69256;SDS011;56376;53.356;-1.748;2022-10-17T15:19:14;4.88;;;1.85;;
69256;SDS011;56376;53.356;-1.748;2022-10-17T15:21:39;3.78;;;1.50;;
69256;SDS011;56376;53.356;-1.748;2022-10-17T15:24:05;4.40;;;1.63;;
69256;SDS011;56376;53.356;-1.748;2022-10-17T15:26:31;3.95;;;1.75;;
69256;SDS011;56376;53.356;-1.748;2022-10-17T15:28:58;3.10;;;1.52;;
69256;SDS011;56376;53.356;-1.748;2022-10-17T15:31:24;3.75;;;1.50;;
69256;SDS011;56376;53.356;-1.748;2022-10-17T15:33:51;3.95;;;1.42;;
69256;SDS011;56376;53.356;-1.748;2022-10-17T15:38:59;3.65;;;1.60;;
69256;SDS011;56376;53.356;-1.748;2022-10-17T15:41:26;4.63;;;1.38;;
69256;SDS011;56376;53.356;-1.748;2022-10-17T15:43:53;4.38;;;1.50;;
69256;SDS011;56376;53.356;-1.748;2022-10-17T15:46:20;4.63;;;2.15;;
69256;SDS011;56376;53.356;-1.748;2022-10-17T15:48:48;6.15;;;1.98;;
69256;SDS011;56376;53.356;-1.748;2022-10-17T15:51:13;6.38;;;1.60;;
69256;SDS011;56376;53.356;-1.748;2022-10-17T15:53:39;5.47;;;1.73;;
69256;SDS011;56376;53.356;-1.748;2022-10-17T15:56:05;5.35;;;1.67;;
69256;SDS011;56376;53.356;-1.748;2022-10-17T15:58:36;3.85;;;1.50;;
69256;SDS011;56376;53.356;-1.748;2022-10-17T16:01:04;3.45;;;1.60;;
69256;SDS011;56376;53.356;-1.748;2022-10-17T16:03:30;3.17;;;1.20;;
69256;SDS011;56376;53.356;-1.748;2022-10-17T16:05:56;3.75;;;1.33;;
69256;SDS011;56376;53.356;-1.748;2022-10-17T16:08:21;3.92;;;1.48;;
69256;SDS011;56376;53.356;-1.748;2022-10-17T16:10:47;5.78;;;1.50;;
69256;SDS011;56376;53.356;-1.748;2022-10-17T16:13:15;4.75;;;1.33;;
69256;SDS011;56376;53.356;-1.748;2022-10-17T16:15:43;3.53;;;1.42;;
69256;SDS011;56376;53.356;-1.748;2022-10-17T16:18:08;4.88;;;1.73;;
69256;SDS011;56376;53.356;-1.748;2022-10-17T16:20:33;3.33;;;1.25;;
69256;SDS011;56376;53.356;-1.748;2022-10-17T16:22:59;3.65;;;1.48;;
69256;SDS011;56376;53.356;-1.748;2022-10-17T16:25:27;2.10;;;1.30;;
69256;SDS011;56376;53.356;-1.748;2022-10-17T16:27:55;3.78;;;1.20;;
69256;SDS011;56376;53.356;-1.748;2022-10-17T16:30:23;2.78;;;1.30;;
69256;SDS011;56376;53.356;-1.748;2022-10-17T16:32:50;4.88;;;1.92;;
69256;SDS011;56376;53.356;-1.748;2022-10-17T16:35:17;3.88;;;1.50;;
69256;SDS011;56376;53.356;-1.748;2022-10-17T16:37:51;4.95;;;1.58;;
69256;SDS011;56376;53.356;-1.748;2022-10-17T16:40:16;4.72;;;1.67;;
69256;SDS011;56376;53.356;-1.748;2022-10-17T16:42:42;3.28;;;1.20;;
69256;SDS011;56376;53.356;-1.748;2022-10-17T16:45:09;3.25;;;1.77;;
69256;SDS011;56376;53.356;-1.748;2022-10-17T16:47:43;4.40;;;1.95;;
69256;SDS011;56376;53.356;-1.748;2022-10-17T16:50:08;3.58;;;1.67;;
69256;SDS011;56376;53.356;-1.748;2022-10-17T16:52:34;3.83;;;1.48;;
69256;SDS011;56376;53.356;-1.748;2022-10-17T16:54:59;2.40;;;1.23;;
69256;SDS011;56376;53.356;-1.748;2022-10-17T16:57:25;6.00;;;2.90;;
69256;SDS011;56376;53.356;-1.748;2022-10-17T16:59:50;6.57;;;1.88;;
69256;SDS011;56376;53.356;-1.748;2022-10-17T17:02:16;5.72;;;1.83;;
69256;SDS011;56376;53.356;-1.748;2022-10-17T17:04:42;3.88;;;1.40;;
69256;SDS011;56376;53.356;-1.748;2022-10-17T17:07:07;4.63;;;1.42;;